Time;durP1;ratioP1;P1;durP2;ratioP2;P2;SDS_P1;SDS_P2;PMS_P1;PMS_P2;Temp;Humidity;BMP_temperature;BMP_pressure;BME280_temperature;BME280_humidity;BME280_pressure;Samples;Min_cycle;Max_cycle;Signal;HPM_P1;HPM_P2
2023/08/12 00:00:48;;;;;;;9.02;2.60;;;;;;;17.81;100.00;101828.88;5092554;28;20036;-75
2023/08/12 00:03:14;;;;;;;8.18;2.00;;;;;;;17.83;100.00;101823.31;5092241;28;20039;-75
2023/08/12 00:05:40;;;;;;;9.88;2.95;;;;;;;17.84;100.00;101827.66;5093010;28;20535;-75
2023/08/12 00:08:05;;;;;;;10.60;2.88;;;;;;;17.82;100.00;101814.38;5091621;28;20047;-75
2023/08/12 00:10:31;;;;;;;5.97;2.25;;;;;;;17.84;100.00;101816.91;5092472;28;20067;-75
2023/08/12 00:12:56;;;;;;;6.25;2.70;;;;;;;17.84;100.00;101815.06;5092327;28;20476;-75
2023/08/12 00:15:22;;;;;;;13.30;2.80;;;;;;;17.82;100.00;101809.00;5092652;28;20356;-75
2023/08/12 00:17:47;;;;;;;5.50;2.13;;;;;;;17.80;100.00;101811.84;5092332;28;20539;-76
2023/08/12 00:20:13;;;;;;;8.35;2.70;;;;;;;17.77;100.00;101811.34;5074631;28;20392;-75
2023/08/12 00:22:39;;;;;;;10.48;3.03;;;;;;;17.72;100.00;101816.34;5074558;28;20364;-75
2023/08/12 00:25:06;;;;;;;8.35;2.70;;;;;;;17.69;100.00;101809.47;5092114;28;20475;-75
2023/08/12 00:27:31;;;;;;;11.45;2.75;;;;;;;17.65;100.00;101807.28;5092175;28;20357;-75
2023/08/12 00:29:56;;;;;;;8.55;2.47;;;;;;;17.62;100.00;101806.56;5074566;28;20040;-75
2023/08/12 00:32:22;;;;;;;7.57;2.45;;;;;;;17.58;100.00;101804.38;5092129;28;20040;-75
2023/08/12 00:34:47;;;;;;;6.45;2.45;;;;;;;17.56;100.00;101796.47;5057676;28;20036;-75
2023/08/12 00:37:13;;;;;;;9.93;2.58;;;;;;;17.55;100.00;101793.94;5074064;28;20063;-75
2023/08/12 00:39:38;;;;;;;4.18;2.72;;;;;;;17.53;100.00;101790.56;5092467;28;20040;-75
2023/08/12 00:42:03;;;;;;;17.17;2.83;;;;;;;17.53;100.00;101794.09;5074239;28;20032;-75
2023/08/12 00:44:29;;;;;;;9.35;2.65;;;;;;;17.53;100.00;101782.50;5092061;28;20024;-75
2023/08/12 00:46:55;;;;;;;7.25;2.67;;;;;;;17.54;100.00;101790.41;5092380;28;20039;-77
2023/08/12 00:49:21;;;;;;;10.50;2.80;;;;;;;17.54;100.00;101794.94;5091746;28;20039;-77
2023/08/12 00:51:52;;;;;;;6.60;2.95;;;;;;;17.52;100.00;101778.94;5091903;28;20047;-77
2023/08/12 00:54:18;;;;;;;8.15;2.70;;;;;;;17.51;100.00;101792.56;5091854;28;20024;-75
2023/08/12 00:56:45;;;;;;;11.18;2.65;;;;;;;17.49;100.00;101781.97;5092206;28;20421;-75
2023/08/12 00:59:11;;;;;;;8.35;2.63;;;;;;;17.47;100.00;101778.59;5091882;28;20031;-76
2023/08/12 01:01:43;;;;;;;13.40;3.60;;;;;;;17.45;100.00;101777.91;5092121;28;20029;-76
2023/08/12 01:04:09;;;;;;;9.20;2.50;;;;;;;17.44;100.00;101777.06;5091756;28;20417;-80
2023/08/12 01:06:35;;;;;;;7.07;2.70;;;;;;;17.46;100.00;101782.28;5091859;28;20032;-75
2023/08/12 01:09:01;;;;;;;11.88;2.83;;;;;;;17.46;100.00;101774.22;5091817;28;20396;-75
2023/08/12 01:11:58;;;;;;;10.65;3.25;;;;;;;17.48;100.00;101776.75;5091685;28;20253;-75
2023/08/12 01:14:50;;;;;;;7.55;2.90;;;;;;;17.50;100.00;101764.81;5083517;28;20497;-75
2023/08/12 01:17:16;;;;;;;8.30;2.78;;;;;;;17.51;100.00;101762.97;5096123;28;20061;-77
2023/08/12 01:19:43;;;;;;;10.10;2.60;;;;;;;17.53;100.00;101755.59;5095964;28;20122;-76
2023/08/12 01:22:11;;;;;;;8.38;3.08;;;;;;;17.54;100.00;101752.75;5095546;28;20040;-76
2023/08/12 01:24:38;;;;;;;8.57;2.75;;;;;;;17.55;100.00;101753.56;5095672;28;20409;-76
2023/08/12 01:27:05;;;;;;;8.65;3.05;;;;;;;17.53;100.00;101750.22;5095570;28;20116;-76
2023/08/12 01:29:32;;;;;;;8.65;3.22;;;;;;;17.50;100.00;101748.69;5095279;28;20093;-75
2023/08/12 01:32:09;;;;;;;9.07;3.03;;;;;;;17.50;100.00;101751.38;5095657;28;20035;-76
2023/08/12 01:34:43;;;;;;;8.45;3.40;;;;;;;17.47;100.00;101749.00;5095465;28;20131;-75
2023/08/12 01:37:14;;;;;;;10.98;3.30;;;;;;;17.45;100.00;101743.78;5095162;28;20028;-76
2023/08/12 01:39:41;;;;;;;8.27;3.25;;;;;;;17.45;100.00;101737.56;5095666;28;20073;-76
2023/08/12 01:42:07;;;;;;;12.40;4.18;;;;;;;17.48;100.00;101748.00;5094433;28;20064;-84
2023/08/12 01:44:33;;;;;;;11.35;3.67;;;;;;;17.51;100.00;101736.94;5093052;28;20117;-85
2023/08/12 01:46:59;;;;;;;12.18;4.05;;;;;;;17.55;100.00;101735.56;5075195;28;20481;-85
2023/08/12 01:49:25;;;;;;;14.50;3.78;;;;;;;17.60;100.00;101740.47;5093752;28;20130;-84
2023/08/12 01:51:50;;;;;;;11.50;3.88;;;;;;;17.63;100.00;101734.78;5093179;28;20471;-85
2023/08/12 01:54:16;;;;;;;15.95;3.83;;;;;;;17.66;100.00;101736.28;5093149;28;20120;-84
2023/08/12 01:56:41;;;;;;;8.38;3.70;;;;;;;17.70;100.00;101729.56;5093052;28;20036;-85
2023/08/12 01:59:07;;;;;;;9.15;3.38;;;;;;;17.72;100.00;101725.72;5093164;28;20456;-84
2023/08/12 02:01:32;;;;;;;14.48;3.40;;;;;;;17.75;100.00;101722.69;5093080;28;20074;-84
2023/08/12 02:03:57;;;;;;;12.25;4.15;;;;;;;17.78;100.00;101716.97;5074825;28;20145;-84
2023/08/12 02:06:23;;;;;;;8.15;3.50;;;;;;;17.80;100.00;101714.13;5093069;28;20119;-85
2023/08/12 02:08:48;;;;;;;9.48;3.58;;;;;;;17.81;100.00;101710.44;5074606;28;20059;-85
2023/08/12 02:11:13;;;;;;;11.90;3.65;;;;;;;17.83;100.00;101718.34;5092976;28;20082;-84
2023/08/12 02:13:39;;;;;;;7.60;3.30;;;;;;;17.85;100.00;101710.94;5093057;28;20031;-85
2023/08/12 02:16:04;;;;;;;8.52;3.42;;;;;;;17.85;100.00;101710.94;5092830;28;20399;-85
2023/08/12 02:18:30;;;;;;;10.57;4.22;;;;;;;17.86;100.00;101708.06;5074721;28;20036;-85
2023/08/12 02:20:55;;;;;;;16.98;4.82;;;;;;;17.87;100.00;101704.38;5074541;28;20032;-84
2023/08/12 02:23:20;;;;;;;8.55;3.50;;;;;;;17.88;100.00;101703.34;5092913;28;20082;-84
2023/08/12 02:25:46;;;;;;;9.93;3.92;;;;;;;17.89;100.00;101705.06;5074158;28;20020;-86
2023/08/12 02:28:12;;;;;;;11.65;4.78;;;;;;;17.88;100.00;101703.34;5074267;28;20043;-85
2023/08/12 02:30:37;;;;;;;8.18;4.00;;;;;;;17.88;100.00;101699.81;5057648;28;20032;-85
2023/08/12 02:33:03;;;;;;;12.07;4.53;;;;;;;17.88;100.00;101697.13;5074214;28;20027;-85
2023/08/12 02:35:28;;;;;;;7.40;4.05;;;;;;;17.88;100.00;101694.44;5074323;28;20403;-85
2023/08/12 02:37:54;;;;;;;8.73;4.38;;;;;;;17.87;100.00;101696.31;5074364;28;20036;-85
2023/08/12 02:40:19;;;;;;;11.32;4.15;;;;;;;17.86;100.00;101694.59;5073974;28;20038;-86
2023/08/12 02:42:44;;;;;;;10.88;4.47;;;;;;;17.86;100.00;101693.78;5091846;28;20027;-86
2023/08/12 02:45:10;;;;;;;10.10;4.78;;;;;;;17.84;100.00;101691.25;5092298;28;20032;-87
2023/08/12 02:47:35;;;;;;;12.10;5.93;;;;;;;17.85;100.00;101684.84;5091940;28;20400;-85
2023/08/12 02:50:00;;;;;;;9.73;4.70;;;;;;;17.87;100.00;101687.38;5040747;28;20063;-85
2023/08/12 02:52:26;;;;;;;10.07;4.57;;;;;;;17.86;100.00;101683.84;5073422;28;20036;-86
2023/08/12 02:54:51;;;;;;;8.75;4.25;;;;;;;17.89;100.00;101685.38;5092058;28;20040;-84
2023/08/12 02:57:17;;;;;;;13.48;4.97;;;;;;;17.88;100.00;101681.81;5092096;28;20328;-86
2023/08/12 02:59:42;;;;;;;10.95;4.70;;;;;;;17.90;100.00;101678.97;5073530;28;20032;-85
2023/08/12 03:02:07;;;;;;;8.50;4.80;;;;;;;17.89;100.00;101674.59;5091871;28;20472;-86
2023/08/12 03:04:33;;;;;;;14.57;4.78;;;;;;;17.87;100.00;101674.78;5073367;28;20081;-85
2023/08/12 03:06:58;;;;;;;9.40;4.93;;;;;;;17.82;100.00;101673.56;5091459;28;20057;-85
2023/08/12 03:09:23;;;;;;;9.98;4.45;;;;;;;17.77;100.00;101669.53;5056525;28;20056;-86
2023/08/12 03:11:49;;;;;;;9.63;4.68;;;;;;;17.77;100.00;101666.84;5091643;28;20155;-86
2023/08/12 03:14:15;;;;;;;10.85;5.22;;;;;;;17.78;100.00;101665.00;5073602;28;20051;-85
2023/08/12 03:16:40;;;;;;;8.63;4.95;;;;;;;17.79;100.00;101653.22;5091652;28;20048;-86
2023/08/12 03:19:05;;;;;;;14.02;4.70;;;;;;;17.79;100.00;101655.91;5056572;28;20086;-85
2023/08/12 03:21:31;;;;;;;9.82;5.43;;;;;;;17.79;100.00;101663.97;5091751;28;20131;-85
2023/08/12 03:23:56;;;;;;;12.35;5.15;;;;;;;17.83;100.00;101654.56;5073359;28;20089;-85
2023/08/12 03:26:21;;;;;;;10.25;5.70;;;;;;;17.86;100.00;101645.31;5073495;28;20044;-85
2023/08/12 03:28:47;;;;;;;14.90;5.18;;;;;;;17.87;100.00;101647.00;5072990;28;20024;-86
2023/08/12 03:31:12;;;;;;;13.18;6.50;;;;;;;17.90;100.00;101644.84;5072921;28;20032;-85
2023/08/12 03:33:38;;;;;;;12.02;5.65;;;;;;;17.91;100.00;101643.81;5091122;28;20361;-85
2023/08/12 03:36:03;;;;;;;13.82;6.43;;;;;;;17.93;100.00;101639.13;5072916;28;20052;-86
2023/08/12 03:38:29;;;;;;;12.82;6.47;;;;;;;17.96;100.00;101633.41;5073175;28;20184;-87
2023/08/12 03:40:54;;;;;;;13.55;6.30;;;;;;;17.96;100.00;101635.25;5072885;28;20529;-86
2023/08/12 03:43:20;;;;;;;11.57;6.07;;;;;;;17.95;100.00;101633.56;5091629;28;20111;-87
2023/08/12 03:45:45;;;;;;;11.77;6.57;;;;;;;17.96;100.00;101635.25;5056736;28;20452;-87
2023/08/12 03:48:11;;;;;;;11.35;6.15;;;;;;;17.98;100.00;101633.22;5091794;28;20055;-87
2023/08/12 03:50:38;;;;;;;13.18;6.85;;;;;;;18.00;100.00;101627.69;5091778;28;20032;-86
2023/08/12 03:53:03;;;;;;;13.23;6.35;;;;;;;18.01;100.00;101619.44;5091283;28;20080;-86
2023/08/12 03:55:35;;;;;;;14.70;6.85;;;;;;;18.02;100.00;101628.34;5072784;28;20107;-86
2023/08/12 03:58:01;;;;;;;15.45;6.82;;;;;;;18.01;100.00;101624.00;5073074;28;20122;-86
2023/08/12 04:00:27;;;;;;;15.30;6.50;;;;;;;18.01;100.00;101615.91;5072773;28;20082;-86
2023/08/12 04:02:52;;;;;;;13.82;6.10;;;;;;;18.01;100.00;101605.16;5091686;28;20030;-87
2023/08/12 04:05:17;;;;;;;12.07;6.15;;;;;;;17.97;100.00;101610.88;5073493;28;20034;-87
2023/08/12 04:07:43;;;;;;;14.75;6.90;;;;;;;17.94;100.00;101597.75;5090609;28;20132;-88
2023/08/12 04:10:09;;;;;;;11.35;6.18;;;;;;;17.92;100.00;101590.84;5072271;28;20469;-86
2023/08/12 04:12:34;;;;;;;11.88;6.55;;;;;;;17.90;100.00;101599.09;5090680;28;20124;-87
2023/08/12 04:15:02;;;;;;;15.70;7.07;;;;;;;17.88;100.00;101601.06;5090624;28;20036;-88
2023/08/12 04:17:27;;;;;;;13.68;6.88;;;;;;;17.87;100.00;101596.72;5091164;28;20476;-87
2023/08/12 04:19:53;;;;;;;10.27;6.63;;;;;;;17.87;100.00;101601.22;5056025;28;20034;-88
2023/08/12 04:22:18;;;;;;;11.23;6.90;;;;;;;17.86;100.00;101597.72;5072965;28;20040;-86
2023/08/12 04:24:43;;;;;;;15.35;7.18;;;;;;;17.87;100.00;101590.47;5072333;28;20047;-88
2023/08/12 04:27:09;;;;;;;14.38;7.35;;;;;;;17.87;100.00;101596.72;5090258;28;20414;-87
2023/08/12 04:29:35;;;;;;;17.02;7.05;;;;;;;17.88;100.00;101589.47;5056291;28;20032;-87
2023/08/12 04:32:01;;;;;;;17.83;7.93;;;;;;;17.89;100.00;101578.56;5090896;28;20078;-88
2023/08/12 04:34:26;;;;;;;16.27;7.38;;;;;;;17.90;100.00;101582.94;5055938;28;20028;-87
2023/08/12 04:36:51;;;;;;;15.05;7.13;;;;;;;17.92;100.00;101583.59;5072297;28;20485;-87
2023/08/12 04:39:17;;;;;;;16.25;7.38;;;;;;;17.94;100.00;101586.97;5090262;28;20147;-86
2023/08/12 04:41:42;;;;;;;11.63;6.72;;;;;;;17.96;100.00;101581.44;5090354;28;20036;-87
2023/08/12 04:44:07;;;;;;;13.60;6.53;;;;;;;17.97;100.00;101583.94;5090328;28;20429;-87
2023/08/12 04:46:33;;;;;;;18.05;7.13;;;;;;;17.98;100.00;101577.53;5072051;28;20165;-86
2023/08/12 04:48:58;;;;;;;11.85;6.63;;;;;;;18.00;100.00;101574.66;5090175;28;20032;-86
2023/08/12 04:51:24;;;;;;;14.93;7.18;;;;;;;18.01;100.00;101564.75;5093484;28;20387;-87
2023/08/12 04:53:50;;;;;;;12.50;7.53;;;;;;;18.02;100.00;101553.81;5093709;28;20119;-85
2023/08/12 04:56:15;;;;;;;13.55;7.20;;;;;;;18.03;100.00;101560.03;5094173;28;20050;-85
2023/08/12 04:58:41;;;;;;;14.70;7.75;;;;;;;18.03;100.00;101560.84;5093894;28;20472;-85
2023/08/12 05:01:08;;;;;;;12.82;6.97;;;;;;;18.03;100.00;101558.16;5075360;28;20421;-86
2023/08/12 05:03:33;;;;;;;14.50;7.07;;;;;;;18.04;100.00;101556.34;5094015;28;20047;-87
2023/08/12 05:05:58;;;;;;;14.07;6.82;;;;;;;18.05;100.00;101544.53;5094321;28;20044;-86
2023/08/12 05:08:24;;;;;;;14.40;6.72;;;;;;;18.05;100.00;101552.59;5058336;28;20048;-88
2023/08/12 05:10:50;;;;;;;17.27;6.90;;;;;;;18.04;100.00;101559.03;5094271;28;20118;-86
2023/08/12 05:13:16;;;;;;;14.20;6.65;;;;;;;18.06;100.00;101554.31;5075587;28;20047;-85
2023/08/12 05:15:41;;;;;;;14.88;7.40;;;;;;;18.05;100.00;101558.84;5075183;28;20036;-86
2023/08/12 05:18:07;;;;;;;14.88;7.85;;;;;;;18.04;100.00;101565.25;5094018;28;20158;-86
2023/08/12 05:20:32;;;;;;;22.23;9.13;;;;;;;18.02;100.00;101561.91;5094072;28;20154;-91
2023/08/12 05:22:58;;;;;;;18.70;9.80;;;;;;;18.00;100.00;101563.06;5059241;28;20039;-87
2023/08/12 05:25:23;;;;;;;17.10;9.27;;;;;;;17.94;100.00;101565.44;5075534;28;20042;-83
2023/08/12 05:27:49;;;;;;;20.70;10.25;;;;;;;17.91;100.00;101568.44;5093920;28;20032;-81
2023/08/12 05:30:15;;;;;;;19.88;10.80;;;;;;;17.88;100.00;101566.06;5093994;28;20036;-83
2023/08/12 05:32:40;;;;;;;24.63;11.30;;;;;;;17.86;100.00;101569.97;5093482;28;20035;-83
2023/08/12 05:35:06;;;;;;;25.00;12.13;;;;;;;17.83;100.00;101563.06;5093378;28;20050;-84
2023/08/12 05:37:31;;;;;;;23.35;12.65;;;;;;;17.82;100.00;101560.53;5075218;28;20063;-83
2023/08/12 05:39:57;;;;;;;23.33;12.32;;;;;;;17.82;100.00;101558.66;5093703;28;20027;-85
2023/08/12 05:42:22;;;;;;;26.05;12.07;;;;;;;17.82;100.00;101561.38;5093707;28;20028;-85
2023/08/12 05:44:47;;;;;;;26.98;14.63;;;;;;;17.82;100.00;101552.47;5093370;28;20478;-83
2023/08/12 05:47:13;;;;;;;28.85;13.30;;;;;;;17.81;100.00;101567.78;5075063;28;20046;-85
2023/08/12 05:49:38;;;;;;;27.08;13.65;;;;;;;17.82;100.00;101571.28;5075275;28;20032;-85
2023/08/12 05:52:04;;;;;;;32.20;14.38;;;;;;;17.82;100.00;101566.75;5093182;28;20084;-84
2023/08/12 05:54:29;;;;;;;25.67;14.10;;;;;;;17.82;100.00;101564.06;5092915;28;20024;-84
2023/08/12 05:56:55;;;;;;;26.83;15.07;;;;;;;17.82;100.00;101561.38;5092520;28;20523;-85
2023/08/12 05:59:20;;;;;;;28.50;14.52;;;;;;;17.83;100.00;101568.44;5092916;28;20076;-83
2023/08/12 06:01:45;;;;;;;24.67;15.38;;;;;;;17.84;100.00;101566.56;5092567;28;20040;-84
2023/08/12 06:04:11;;;;;;;28.90;15.50;;;;;;;17.83;100.00;101562.22;5074156;28;20056;-84
2023/08/12 06:06:36;;;;;;;28.75;14.98;;;;;;;17.80;100.00;101550.75;5092439;28;20348;-83
2023/08/12 06:09:02;;;;;;;28.65;15.27;;;;;;;17.83;100.00;101554.97;5073322;28;20071;-82
2023/08/12 06:11:27;;;;;;;30.77;15.80;;;;;;;17.83;100.00;101560.38;5092105;28;20044;-81
2023/08/12 06:13:53;;;;;;;25.70;14.13;;;;;;;17.84;100.00;101562.06;5075917;28;20063;-81
2023/08/12 06:16:18;;;;;;;22.45;13.05;;;;;;;17.83;100.00;101563.06;5092958;28;20039;-81
2023/08/12 06:18:44;;;;;;;21.58;12.23;;;;;;;17.83;100.00;101562.22;5092446;28;20123;-81
2023/08/12 06:21:09;;;;;;;23.95;13.00;;;;;;;17.82;100.00;101557.84;5092946;28;20028;-80
2023/08/12 06:23:34;;;;;;;23.40;13.00;;;;;;;17.82;100.00;101560.53;5092323;28;20400;-80
2023/08/12 06:26:00;;;;;;;19.58;12.60;;;;;;;17.86;100.00;101561.88;5092258;28;20052;-80
2023/08/12 06:28:25;;;;;;;21.50;12.68;;;;;;;17.87;100.00;101560.84;5092446;28;20090;-79
2023/08/12 06:30:50;;;;;;;22.52;11.95;;;;;;;17.86;100.00;101560.03;5092080;28;20453;-79
2023/08/12 06:33:16;;;;;;;21.05;11.32;;;;;;;17.86;100.00;101556.50;5074224;28;20035;-81
2023/08/12 06:35:42;;;;;;;17.50;10.93;;;;;;;17.86;100.00;101562.72;5092262;28;20100;-80
2023/08/12 06:38:09;;;;;;;15.82;8.93;;;;;;;17.88;100.00;101558.00;5074335;28;20081;-78
2023/08/12 06:40:35;;;;;;;15.80;9.15;;;;;;;17.88;100.00;101555.28;5091878;28;20424;-78
2023/08/12 06:43:00;;;;;;;16.83;10.05;;;;;;;17.89;100.00;101557.03;5091544;28;20038;-79
2023/08/12 06:45:26;;;;;;;17.08;10.23;;;;;;;17.91;100.00;101562.22;5074061;28;20056;-78
2023/08/12 06:47:51;;;;;;;17.63;10.35;;;;;;;17.90;100.00;101564.09;5091728;28;20028;-77
2023/08/12 06:50:17;;;;;;;18.05;10.30;;;;;;;17.89;100.00;101548.94;5091860;28;20056;-77
2023/08/12 06:52:42;;;;;;;14.63;9.30;;;;;;;17.91;100.00;101556.84;5092532;28;20402;-77
2023/08/12 06:55:08;;;;;;;15.93;10.88;;;;;;;17.88;100.00;101570.63;5091806;28;20076;-76
2023/08/12 06:57:33;;;;;;;13.88;7.57;;;;;;;17.77;100.00;101572.63;5092142;28;20491;-76
2023/08/12 06:59:59;;;;;;;13.80;6.25;;;;;;;17.55;100.00;101581.38;5092379;28;20341;-77
2023/08/12 07:02:24;;;;;;;10.32;5.15;;;;;;;17.25;100.00;101591.75;5091605;28;20043;-78
2023/08/12 07:04:49;;;;;;;14.15;4.82;;;;;;;17.04;100.00;101601.13;5092022;28;20036;-78
2023/08/12 07:07:15;;;;;;;6.75;3.38;;;;;;;16.76;100.00;101595.09;5073398;28;20045;-77
2023/08/12 07:09:40;;;;;;;5.43;1.85;;;;;;;16.22;100.00;101601.50;5073024;28;20051;-78
2023/08/12 07:12:06;;;;;;;5.05;2.35;;;;;;;15.96;100.00;101595.28;5090838;28;20143;-80
2023/08/12 07:14:31;;;;;;;9.68;2.33;;;;;;;15.83;100.00;101601.91;5091220;28;20368;-78
2023/08/12 07:16:57;;;;;;;5.20;2.33;;;;;;;15.82;100.00;101594.88;5091698;28;20189;-78
2023/08/12 07:19:22;;;;;;;11.77;2.50;;;;;;;15.81;100.00;101603.91;5091932;28;20071;-79
2023/08/12 07:21:48;;;;;;;7.88;2.35;;;;;;;15.80;100.00;101587.97;5092147;28;20078;-80
2023/08/12 07:24:13;;;;;;;8.07;2.70;;;;;;;15.83;100.00;101590.34;5091456;28;20402;-80
2023/08/12 07:26:39;;;;;;;8.68;2.35;;;;;;;15.85;100.00;101586.50;5091602;28;20040;-80
2023/08/12 07:29:04;;;;;;;15.57;3.10;;;;;;;15.87;100.00;101583.66;5073115;28;20039;-82
2023/08/12 07:31:30;;;;;;;7.53;2.20;;;;;;;15.87;100.00;101575.63;5091935;28;20115;-85
2023/08/12 07:33:58;;;;;;;7.75;2.42;;;;;;;15.90;100.00;101579.81;5056722;28;20032;-87
2023/08/12 07:36:24;;;;;;;6.78;2.17;;;;;;;15.93;100.00;101577.69;5056564;28;20035;-82
2023/08/12 07:38:49;;;;;;;4.75;1.60;;;;;;;15.90;100.00;101578.00;5072835;28;20399;-83
2023/08/12 07:41:15;;;;;;;9.20;2.35;;;;;;;15.87;100.00;101583.66;5091359;28;20059;-81
2023/08/12 07:43:40;;;;;;;5.38;1.80;;;;;;;15.82;100.00;101597.56;5056057;28;20432;-83
2023/08/12 07:46:05;;;;;;;8.23;2.50;;;;;;;15.79;100.00;101600.53;5072986;28;20371;-82
2023/08/12 07:48:31;;;;;;;11.45;2.53;;;;;;;15.77;100.00;101620.44;5073072;28;20050;-83
2023/08/12 07:50:57;;;;;;;9.38;2.08;;;;;;;15.72;100.00;101606.63;5091917;28;20062;-82
2023/08/12 07:53:23;;;;;;;10.68;2.10;;;;;;;15.71;100.00;101604.97;5073241;28;20065;-84
2023/08/12 07:55:49;;;;;;;9.48;2.20;;;;;;;15.69;100.00;101622.06;5072221;28;20077;-85
2023/08/12 07:58:14;;;;;;;7.88;1.50;;;;;;;15.60;100.00;101614.94;5056114;28;20043;-84
2023/08/12 08:00:40;;;;;;;9.68;2.42;;;;;;;15.62;100.00;101620.97;5072586;28;20043;-83
2023/08/12 08:03:05;;;;;;;8.35;2.17;;;;;;;15.71;100.00;101608.47;5090961;28;20432;-85
2023/08/12 08:05:31;;;;;;;9.05;1.90;;;;;;;15.82;100.00;101597.56;5091126;28;20086;-83
2023/08/12 08:07:56;;;;;;;12.35;1.85;;;;;;;15.96;100.00;101601.50;5072159;28;20127;-80
2023/08/12 08:10:22;;;;;;;8.25;2.33;;;;;;;16.04;100.00;101588.13;5090416;28;20105;-80
2023/08/12 08:12:47;;;;;;;5.90;1.60;;;;;;;16.15;100.00;101587.06;5090319;28;20043;-80
2023/08/12 08:15:13;;;;;;;8.30;2.10;;;;;;;16.29;100.00;101590.16;5072130;28;20392;-82
2023/08/12 08:17:38;;;;;;;8.00;1.85;;;;;;;16.33;100.00;101594.19;5072698;28;20056;-83
2023/08/12 08:20:05;;;;;;;9.85;2.33;;;;;;;16.34;100.00;101599.41;5072237;28;20393;-80
2023/08/12 08:22:31;;;;;;;8.85;2.15;;;;;;;16.45;100.00;101590.25;5072694;28;20043;-80
2023/08/12 08:24:56;;;;;;;6.45;1.83;;;;;;;16.57;100.00;101605.09;5074958;28;20035;-80
2023/08/12 08:27:22;;;;;;;6.30;1.70;;;;;;;16.74;100.00;101603.31;5094597;28;20075;-80
2023/08/12 08:29:47;;;;;;;7.15;2.17;;;;;;;16.97;100.00;101605.44;5076531;28;20039;-81
2023/08/12 08:32:13;;;;;;;8.43;1.83;;;;;;;17.19;100.00;101614.75;5094410;28;20104;-80
2023/08/12 08:34:38;;;;;;;9.57;2.80;;;;;;;17.37;100.00;101606.56;5094438;28;20032;-80
2023/08/12 08:37:04;;;;;;;6.40;2.00;;;;;;;17.58;100.00;101599.88;5075866;28;20126;-81
2023/08/12 08:39:29;;;;;;;11.32;2.40;;;;;;;17.74;100.00;101601.75;5093918;28;20108;-80
2023/08/12 08:41:58;;;;;;;6.22;1.73;;;;;;;17.96;100.00;101587.63;5094105;28;20107;-80
2023/08/12 08:44:26;;;;;;;8.50;1.88;;;;;;;18.22;100.00;101589.28;5094715;28;20032;-78
2023/08/12 08:46:53;;;;;;;7.78;1.80;;;;;;;18.62;100.00;101581.25;5094069;28;20119;-78
2023/08/12 08:49:20;;;;;;;8.48;1.73;;;;;;;18.98;100.00;101581.63;5093831;28;20032;-81
2023/08/12 08:51:46;;;;;;;10.25;1.80;;;;;;;19.33;100.00;101574.00;5094559;28;20540;-85
2023/08/12 08:54:13;;;;;;;9.10;1.80;;;;;;;19.56;100.00;101575.88;5093905;28;20046;-89
2023/08/12 08:56:38;;;;;;;7.93;2.03;;;;;;;19.81;100.00;101594.59;5094122;28;20337;-86
2023/08/12 08:59:04;;;;;;;6.05;2.00;;;;;;;19.80;100.00;101584.81;5093903;28;20074;-81
2023/08/12 09:01:31;;;;;;;8.32;2.30;;;;;;;19.74;100.00;101589.06;5093861;28;20116;-89
2023/08/12 09:03:57;;;;;;;6.72;2.17;;;;;;;20.14;100.00;101588.88;5093630;28;20077;-89
2023/08/12 09:06:25;;;;;;;6.15;1.80;;;;;;;20.58;100.00;101590.78;5093484;28;20056;-83
2023/08/12 09:08:51;;;;;;;8.35;2.45;;;;;;;20.63;100.00;101598.31;5074797;28;20036;-85
2023/08/12 09:11:18;;;;;;;7.28;2.03;;;;;;;20.94;100.00;101590.00;5093218;28;20052;-82
2023/08/12 09:13:43;;;;;;;7.82;1.98;;;;;;;20.95;100.00;101606.03;5093584;28;20032;-82
2023/08/12 09:16:09;;;;;;;8.05;2.00;;;;;;;20.78;100.00;101608.13;5093487;28;20031;-82
2023/08/12 09:18:36;;;;;;;7.18;2.00;;;;;;;20.28;100.00;101611.56;5075581;28;20377;-80
2023/08/12 09:21:02;;;;;;;7.47;2.08;;;;;;;19.94;100.00;101608.31;5075510;28;20036;-82
2023/08/12 09:23:28;;;;;;;10.10;2.20;;;;;;;20.47;100.00;101608.31;5058779;28;20039;-81
2023/08/12 09:25:54;;;;;;;12.43;1.90;;;;;;;20.60;100.00;101611.19;5075198;28;20047;-77
2023/08/12 09:28:21;;;;;;;8.18;1.98;;;;;;;20.98;100.00;101617.53;5093749;28;20370;-84
2023/08/12 09:30:53;;;;;;;7.57;1.88;;;;;;;21.48;100.00;101622.06;5075004;28;20151;-79
2023/08/12 09:33:27;;;;;;;9.52;2.10;;;;;;;21.63;100.00;101621.16;5074745;28;20024;-82
2023/08/12 09:35:56;;;;;;;8.93;2.38;;;;;;;21.38;100.00;101634.22;5077132;28;20024;-81
2023/08/12 09:38:21;;;;;;;7.35;2.00;;;;;;;20.71;100.00;101628.84;5096260;28;20344;-83
2023/08/12 09:40:47;;;;;;;6.63;2.53;;;;;;;20.16;100.00;101630.06;5094982;28;20034;-82
2023/08/12 09:43:13;;;;;;;9.63;1.83;;;;;;;19.80;100.00;101619.91;5058173;28;20044;-85
2023/08/12 09:45:45;;;;;;;10.63;1.80;;;;;;;19.62;100.00;101626.44;5075466;28;20046;-85
2023/08/12 09:48:10;;;;;;;8.35;2.03;;;;;;;19.91;100.00;101632.97;5075504;28;20020;-84
2023/08/12 09:50:36;;;;;;;12.13;1.98;;;;;;;20.90;100.00;101640.94;5075264;28;20392;-82
2023/08/12 09:53:03;;;;;;;8.65;1.95;;;;;;;21.69;100.00;101631.25;5075447;28;20124;-84
2023/08/12 09:55:31;;;;;;;8.45;1.52;;;;;;;21.70;100.00;101632.91;5075715;28;20135;-83
2023/08/12 09:57:59;;;;;;;7.13;1.92;;;;;;;21.90;100.00;101634.97;5093012;28;20088;-82
2023/08/12 10:00:25;;;;;;;9.75;2.08;;;;;;;22.29;100.00;101634.44;5074764;28;20153;-80
2023/08/12 10:02:51;;;;;;;8.10;2.42;;;;;;;22.36;100.00;101646.22;5092892;28;20075;-79
2023/08/12 10:05:32;;;;;;;9.23;3.03;;;;;;;22.51;100.00;101637.13;5074111;28;20036;-82
2023/08/12 10:07:58;;;;;;;9.40;2.35;;;;;;;23.27;100.00;101638.94;5092540;28;20043;-75
2023/08/12 10:10:24;;;;;;;9.05;2.05;;;;;;;23.43;100.00;101635.03;5092542;28;20047;-78
2023/08/12 10:12:51;;;;;;;7.85;2.08;;;;;;;23.15;100.00;101636.00;5092097;28;20044;-76
2023/08/12 10:15:17;;;;;;;12.98;2.85;;;;;;;22.93;100.00;101639.84;5092698;28;20058;-77
2023/08/12 10:17:43;;;;;;;10.25;2.40;;;;;;;22.41;100.00;101644.75;5091943;28;20184;-75
2023/08/12 10:20:13;;;;;;;12.50;2.78;;;;;;;22.51;100.00;101637.97;5092381;28;20028;-77
2023/08/12 10:22:40;;;;;;;10.23;2.40;;;;;;;23.07;100.00;101645.13;5092929;28;20024;-82
2023/08/12 10:25:07;;;;;;;9.90;2.50;;;;;;;23.46;100.00;101640.06;5092452;28;20416;-76
2023/08/12 10:27:33;;;;;;;12.05;2.30;;;;;;;24.11;100.00;101647.69;5091935;28;20129;-75
2023/08/12 10:29:58;;;;;;;9.27;2.30;;;;;;;24.49;100.00;101641.56;5092548;28;20176;-76
2023/08/12 10:32:28;;;;;;;9.57;2.30;;;;;;;24.41;100.00;101649.97;5092181;28;20038;-81
2023/08/12 10:34:58;;;;;;;6.85;2.65;;;;;;;24.48;100.00;101634.44;5073251;28;20040;-79
2023/08/12 10:37:25;;;;;;;10.70;2.50;;;;;;;24.77;100.00;101627.69;5091911;28;20051;-75
2023/08/12 10:39:53;;;;;;;8.07;2.28;;;;;;;25.36;100.00;101630.38;5091820;28;20032;-75
2023/08/12 10:42:44;;;;;;;6.80;2.35;;;;;;;25.57;100.00;101629.19;5073855;28;20466;-75
2023/08/12 10:45:10;;;;;;;;;;;;;;;25.81;94.36;101624.00;5092868;28;20047;-76
2023/08/12 10:47:44;;;;;;;8.00;2.22;;;;;;;26.43;100.00;101620.53;5089986;28;19919;-78
2023/08/12 10:50:20;;;;;;;10.38;2.58;;;;;;;27.09;100.00;101614.28;5073871;28;20036;-79
2023/08/12 10:52:47;;;;;;;16.20;3.13;;;;;;;27.27;86.54;101615.31;5056469;28;20058;-75
2023/08/12 10:55:15;;;;;;;10.52;2.53;;;;;;;27.37;85.09;101622.97;5091418;28;20131;-75
2023/08/12 10:57:41;;;;;;;7.18;2.28;;;;;;;27.70;75.35;101618.91;5073120;28;20397;-77
2023/08/12 11:00:11;;;;;;;10.10;2.63;;;;;;;27.74;84.07;101620.94;5091661;28;20500;-74
2023/08/12 11:02:39;;;;;;;8.90;2.43;;;;;;;28.10;71.25;101610.06;5091720;28;20419;-75
2023/08/12 11:05:09;;;;;;;11.98;2.33;;;;;;;27.84;81.26;101616.78;5074071;28;20103;-75
2023/08/12 11:08:01;;;;;;;10.77;2.30;;;;;;;28.00;83.54;101610.63;5091464;28;20038;-75